sensor_id;sensor_type;location;lat;lon;timestamp;pressure;altitude;pressure_sealevel;temperature;humidity
51617;BME280;37697;52.588;13.394;2023-04-27T00:02:32;101329.46;;;5.48;63.11
51617;BME280;37697;52.588;13.394;2023-04-27T00:07:58;101327.58;;;5.46;63.17
51617;BME280;37697;52.588;13.394;2023-04-27T00:13:24;101321.46;;;5.45;63.27
51617;BME280;37697;52.588;13.394;2023-04-27T00:18:50;101313.98;;;5.46;63.55
51617;BME280;37697;52.588;13.394;2023-04-27T00:24:15;101315.23;;;5.46;63.43
51617;BME280;37697;52.588;13.394;2023-04-27T00:29:41;101316.34;;;5.42;63.43
51617;BME280;37697;52.588;13.394;2023-04-27T00:35:08;101317.23;;;5.41;63.51
51617;BME280;37697;52.588;13.394;2023-04-27T00:40:34;101318.77;;;5.41;63.58
51617;BME280;37697;52.588;13.394;2023-04-27T00:46:00;101320.63;;;5.41;63.82
51617;BME280;37697;52.588;13.394;2023-04-27T00:51:27;101325.14;;;5.42;63.84
51617;BME280;37697;52.588;13.394;2023-04-27T00:56:53;101333.96;;;5.40;63.75
51617;BME280;37697;52.588;13.394;2023-04-27T01:02:19;101336.70;;;5.40;63.71
51617;BME280;37697;52.588;13.394;2023-04-27T01:07:45;101340.20;;;5.38;63.61
51617;BME280;37697;52.588;13.394;2023-04-27T01:13:11;101339.02;;;5.35;63.51
51617;BME280;37697;52.588;13.394;2023-04-27T01:18:36;101345.62;;;5.34;63.79
51617;BME280;37697;52.588;13.394;2023-04-27T01:24:04;101344.58;;;5.33;63.53
51617;BME280;37697;52.588;13.394;2023-04-27T01:29:30;101344.04;;;5.33;63.46
51617;BME280;37697;52.588;13.394;2023-04-27T01:34:56;101349.38;;;5.33;63.62
51617;BME280;37697;52.588;13.394;2023-04-27T01:40:22;101355.27;;;5.32;63.64
51617;BME280;37697;52.588;13.394;2023-04-27T01:45:48;101361.83;;;5.31;63.87
51617;BME280;37697;52.588;13.394;2023-04-27T01:51:14;101359.20;;;5.32;63.90
51617;BME280;37697;52.588;13.394;2023-04-27T01:56:40;101363.23;;;5.30;64.13
51617;BME280;37697;52.588;13.394;2023-04-27T02:02:06;101367.77;;;5.27;64.24
51617;BME280;37697;52.588;13.394;2023-04-27T02:07:32;101369.41;;;5.26;64.25
51617;BME280;37697;52.588;13.394;2023-04-27T02:12:58;101371.08;;;5.25;64.37
51617;BME280;37697;52.588;13.394;2023-04-27T02:18:24;101378.45;;;5.21;64.47
51617;BME280;37697;52.588;13.394;2023-04-27T02:23:50;101383.96;;;5.18;64.40
51617;BME280;37697;52.588;13.394;2023-04-27T02:29:06;101385.56;;;5.14;64.53
51617;BME280;37697;52.588;13.394;2023-04-27T02:34:32;101389.42;;;5.10;64.55
51617;BME280;37697;52.588;13.394;2023-04-27T02:39:57;101390.80;;;5.06;64.73
51617;BME280;37697;52.588;13.394;2023-04-27T02:45:16;101390.99;;;5.05;64.94
51617;BME280;37697;52.588;13.394;2023-04-27T02:50:42;101396.30;;;5.02;65.06
51617;BME280;37697;52.588;13.394;2023-04-27T02:56:08;101395.48;;;4.98;64.68
51617;BME280;37697;52.588;13.394;2023-04-27T03:01:34;101403.45;;;4.92;64.67
51617;BME280;37697;52.588;13.394;2023-04-27T03:07:01;101405.34;;;4.90;64.96
51617;BME280;37697;52.588;13.394;2023-04-27T03:12:26;101405.31;;;4.88;65.27
51617;BME280;37697;52.588;13.394;2023-04-27T03:17:52;101403.51;;;4.88;65.07
51617;BME280;37697;52.588;13.394;2023-04-27T03:23:18;101408.06;;;4.89;65.03
51617;BME280;37697;52.588;13.394;2023-04-27T03:28:44;101408.59;;;4.88;65.09
51617;BME280;37697;52.588;13.394;2023-04-27T03:34:10;101413.86;;;4.87;65.36
51617;BME280;37697;52.588;13.394;2023-04-27T03:39:36;101418.91;;;4.85;65.28
51617;BME280;37697;52.588;13.394;2023-04-27T03:45:01;101423.19;;;4.80;65.21
51617;BME280;37697;52.588;13.394;2023-04-27T03:50:27;101426.61;;;4.79;65.56
51617;BME280;37697;52.588;13.394;2023-04-27T03:55:53;101431.78;;;4.78;65.64
51617;BME280;37697;52.588;13.394;2023-04-27T04:01:18;101435.79;;;4.80;65.21
51617;BME280;37697;52.588;13.394;2023-04-27T04:06:44;101434.90;;;4.82;65.55
51617;BME280;37697;52.588;13.394;2023-04-27T04:12:09;101442.84;;;4.85;65.49
51617;BME280;37697;52.588;13.394;2023-04-27T04:17:35;101445.82;;;4.88;65.86
51617;BME280;37697;52.588;13.394;2023-04-27T04:22:53;101451.92;;;4.91;65.84
51617;BME280;37697;52.588;13.394;2023-04-27T04:28:19;101459.09;;;4.92;65.57
51617;BME280;37697;52.588;13.394;2023-04-27T04:33:45;101454.13;;;4.96;66.10
51617;BME280;37697;52.588;13.394;2023-04-27T04:39:11;101459.11;;;5.00;65.46
51617;BME280;37697;52.588;13.394;2023-04-27T04:44:37;101461.64;;;5.04;65.70
51617;BME280;37697;52.588;13.394;2023-04-27T04:50:03;101466.38;;;5.07;65.45
51617;BME280;37697;52.588;13.394;2023-04-27T04:55:29;101468.98;;;5.15;65.65
51617;BME280;37697;52.588;13.394;2023-04-27T05:00:55;101475.64;;;5.23;65.62
51617;BME280;37697;52.588;13.394;2023-04-27T05:06:21;101480.71;;;5.34;65.75
51617;BME280;37697;52.588;13.394;2023-04-27T05:11:47;101478.80;;;5.44;65.45
51617;BME280;37697;52.588;13.394;2023-04-27T05:17:12;101480.29;;;5.53;65.33
51617;BME280;37697;52.588;13.394;2023-04-27T05:22:31;101483.19;;;5.61;65.22
51617;BME280;37697;52.588;13.394;2023-04-27T05:27:57;101481.77;;;5.64;64.80
51617;BME280;37697;52.588;13.394;2023-04-27T05:33:22;101485.46;;;5.70;64.94
51617;BME280;37697;52.588;13.394;2023-04-27T05:38:48;101482.27;;;5.86;64.80
51617;BME280;37697;52.588;13.394;2023-04-27T05:44:14;101484.35;;;5.97;64.48
51617;BME280;37697;52.588;13.394;2023-04-27T05:49:32;101488.48;;;6.03;64.24
51617;BME280;37697;52.588;13.394;2023-04-27T05:54:58;101486.41;;;6.08;64.06
51617;BME280;37697;52.588;13.394;2023-04-27T06:00:24;101494.91;;;6.20;63.94
51617;BME280;37697;52.588;13.394;2023-04-27T06:05:54;101493.52;;;6.36;63.60
51617;BME280;37697;52.588;13.394;2023-04-27T06:11:29;101503.05;;;6.75;63.15
51617;BME280;37697;52.588;13.394;2023-04-27T06:16:55;101507.47;;;7.14;62.26
51617;BME280;37697;52.588;13.394;2023-04-27T06:22:21;101515.19;;;7.21;61.68
51617;BME280;37697;52.588;13.394;2023-04-27T06:27:46;101513.82;;;7.37;61.73
51617;BME280;37697;52.588;13.394;2023-04-27T06:33:13;101516.71;;;7.76;60.73
51617;BME280;37697;52.588;13.394;2023-04-27T06:38:38;101513.05;;;8.13;59.94
51617;BME280;37697;52.588;13.394;2023-04-27T06:44:04;101512.05;;;8.48;59.39
51617;BME280;37697;52.588;13.394;2023-04-27T06:49:30;101511.61;;;8.68;58.72
51617;BME280;37697;52.588;13.394;2023-04-27T06:54:56;101518.95;;;8.60;58.19
51617;BME280;37697;52.588;13.394;2023-04-27T07:00:22;101521.58;;;8.53;57.84
51617;BME280;37697;52.588;13.394;2023-04-27T07:05:48;101523.73;;;8.59;57.45
51617;BME280;37697;52.588;13.394;2023-04-27T07:11:14;101526.21;;;9.00;57.54
51617;BME280;37697;52.588;13.394;2023-04-27T07:16:40;101518.58;;;9.34;56.82
51617;BME280;37697;52.588;13.394;2023-04-27T07:22:06;101522.07;;;9.59;56.99
51617;BME280;37697;52.588;13.394;2023-04-27T07:27:32;101523.68;;;9.78;55.98
51617;BME280;37697;52.588;13.394;2023-04-27T07:32:58;101521.08;;;9.64;55.36
51617;BME280;37697;52.588;13.394;2023-04-27T07:38:23;101520.49;;;9.41;54.87
51617;BME280;37697;52.588;13.394;2023-04-27T07:43:49;101524.58;;;9.20;54.55
51617;BME280;37697;52.588;13.394;2023-04-27T07:49:15;101529.80;;;9.09;54.68
51617;BME280;37697;52.588;13.394;2023-04-27T07:54:41;101532.61;;;9.25;54.65
51617;BME280;37697;52.588;13.394;2023-04-27T08:00:09;101539.37;;;9.37;54.11
51617;BME280;37697;52.588;13.394;2023-04-27T08:05:35;101543.30;;;9.63;53.58
51617;BME280;37697;52.588;13.394;2023-04-27T08:11:01;101541.86;;;10.39;53.66
51617;BME280;37697;52.588;13.394;2023-04-27T08:16:26;101535.16;;;10.72;51.69
51617;BME280;37697;52.588;13.394;2023-04-27T08:21:52;101540.98;;;10.25;51.18
51617;BME280;37697;52.588;13.394;2023-04-27T08:27:18;101542.73;;;10.32;51.84
51617;BME280;37697;52.588;13.394;2023-04-27T08:32:44;101542.05;;;10.61;50.75
51617;BME280;37697;52.588;13.394;2023-04-27T08:38:10;101545.91;;;10.33;50.15
51617;BME280;37697;52.588;13.394;2023-04-27T08:43:36;101549.39;;;9.75;50.60
51617;BME280;37697;52.588;13.394;2023-04-27T08:49:04;101550.41;;;9.41;51.43
51617;BME280;37697;52.588;13.394;2023-04-27T08:54:30;101547.59;;;9.19;51.46
51617;BME280;37697;52.588;13.394;2023-04-27T08:59:59;101542.43;;;9.38;51.70
51617;BME280;37697;52.588;13.394;2023-04-27T09:05:25;101548.77;;;9.82;51.51
51617;BME280;37697;52.588;13.394;2023-04-27T09:11:09;101542.63;;;9.70;50.50
51617;BME280;37697;52.588;13.394;2023-04-27T09:16:35;101546.89;;;9.52;50.55
51617;BME280;37697;52.588;13.394;2023-04-27T09:22:05;101545.90;;;9.39;49.86
51617;BME280;37697;52.588;13.394;2023-04-27T09:27:32;101545.44;;;9.65;50.98
51617;BME280;37697;52.588;13.394;2023-04-27T09:32:59;101545.23;;;9.61;50.26
51617;BME280;37697;52.588;13.394;2023-04-27T09:38:29;101536.95;;;9.74;50.76
51617;BME280;37697;52.588;13.394;2023-04-27T09:43:55;101530.35;;;10.53;49.39
51617;BME280;37697;52.588;13.394;2023-04-27T09:49:22;101520.54;;;10.35;48.40
51617;BME280;37697;52.588;13.394;2023-04-27T09:54:49;101526.71;;;10.11;49.09
51617;BME280;37697;52.588;13.394;2023-04-27T10:00:23;101523.98;;;9.88;49.74
51617;BME280;37697;52.588;13.394;2023-04-27T10:06:34;101519.75;;;9.88;49.88
51617;BME280;37697;52.588;13.394;2023-04-27T10:12:18;101517.58;;;10.54;49.70
51617;BME280;37697;52.588;13.394;2023-04-27T10:17:50;101511.11;;;10.89;49.03
51617;BME280;37697;52.588;13.394;2023-04-27T10:23:24;101507.87;;;11.31;48.09
51617;BME280;37697;52.588;13.394;2023-04-27T10:28:59;101509.38;;;11.08;47.45
51617;BME280;37697;52.588;13.394;2023-04-27T10:34:29;101504.63;;;10.73;46.97
51617;BME280;37697;52.588;13.394;2023-04-27T10:39:52;101505.58;;;10.43;47.35
51617;BME280;37697;52.588;13.394;2023-04-27T10:45:28;101506.26;;;10.58;47.82
51617;BME280;37697;52.588;13.394;2023-04-27T10:50:54;101501.96;;;11.38;48.03
51617;BME280;37697;52.588;13.394;2023-04-27T10:56:21;101501.48;;;11.41;46.76
51617;BME280;37697;52.588;13.394;2023-04-27T11:01:49;101505.31;;;11.14;46.35
51617;BME280;37697;52.588;13.394;2023-04-27T11:07:24;101504.13;;;11.03;46.36
51617;BME280;37697;52.588;13.394;2023-04-27T11:12:50;101504.48;;;10.94;45.87
51617;BME280;37697;52.588;13.394;2023-04-27T11:18:16;101510.89;;;10.67;45.38
51617;BME280;37697;52.588;13.394;2023-04-27T11:23:42;101517.67;;;10.65;45.85
51617;BME280;37697;52.588;13.394;2023-04-27T11:29:09;101519.16;;;10.98;45.15
51617;BME280;37697;52.588;13.394;2023-04-27T11:34:38;101519.73;;;11.66;44.52
51617;BME280;37697;52.588;13.394;2023-04-27T11:40:05;101520.67;;;11.88;44.05
51617;BME280;37697;52.588;13.394;2023-04-27T11:45:31;101521.45;;;12.21;43.68
51617;BME280;37697;52.588;13.394;2023-04-27T11:50:58;101523.97;;;12.27;42.92
51617;BME280;37697;52.588;13.394;2023-04-27T11:56:32;101530.27;;;12.15;43.27
51617;BME280;37697;52.588;13.394;2023-04-27T12:01:58;101537.84;;;11.80;43.02
51617;BME280;37697;52.588;13.394;2023-04-27T12:07:24;101543.37;;;11.39;43.29
51617;BME280;37697;52.588;13.394;2023-04-27T12:12:50;101547.86;;;11.07;43.51
51617;BME280;37697;52.588;13.394;2023-04-27T12:18:16;101551.38;;;10.96;43.99
51617;BME280;37697;52.588;13.394;2023-04-27T12:23:30;101552.89;;;10.91;44.22
51617;BME280;37697;52.588;13.394;2023-04-27T12:28:56;101558.36;;;10.97;44.22
51617;BME280;37697;52.588;13.394;2023-04-27T12:34:22;101551.63;;;11.65;44.71
51617;BME280;37697;52.588;13.394;2023-04-27T12:39:47;101541.86;;;12.00;44.11
51617;BME280;37697;52.588;13.394;2023-04-27T12:45:13;101544.05;;;11.96;44.23
51617;BME280;37697;52.588;13.394;2023-04-27T12:50:39;101548.86;;;11.94;42.85
51617;BME280;37697;52.588;13.394;2023-04-27T12:56:05;101545.75;;;11.96;42.90
51617;BME280;37697;52.588;13.394;2023-04-27T13:01:32;101543.83;;;12.34;42.67
51617;BME280;37697;52.588;13.394;2023-04-27T13:07:06;101534.46;;;12.61;41.34
51617;BME280;37697;52.588;13.394;2023-04-27T13:12:25;101544.56;;;12.33;41.55
51617;BME280;37697;52.588;13.394;2023-04-27T13:17:51;101536.99;;;12.41;41.56
51617;BME280;37697;52.588;13.394;2023-04-27T13:23:09;101540.55;;;12.57;41.05
51617;BME280;37697;52.588;13.394;2023-04-27T13:28:35;101544.03;;;12.40;40.71
51617;BME280;37697;52.588;13.394;2023-04-27T13:34:01;101535.66;;;12.20;40.94
51617;BME280;37697;52.588;13.394;2023-04-27T13:39:27;101539.89;;;12.17;41.05
51617;BME280;37697;52.588;13.394;2023-04-27T13:44:45;101538.98;;;11.94;40.33
51617;BME280;37697;52.588;13.394;2023-04-27T13:50:12;101542.27;;;11.69;41.08
51617;BME280;37697;52.588;13.394;2023-04-27T13:55:38;101546.70;;;11.55;41.39
51617;BME280;37697;52.588;13.394;2023-04-27T14:01:04;101544.20;;;11.45;41.06
51617;BME280;37697;52.588;13.394;2023-04-27T14:06:30;101544.20;;;11.58;41.88
51617;BME280;37697;52.588;13.394;2023-04-27T14:11:56;101541.86;;;11.76;41.73
51617;BME280;37697;52.588;13.394;2023-04-27T14:17:22;101546.54;;;11.83;41.66
51617;BME280;37697;52.588;13.394;2023-04-27T14:22:49;101550.41;;;11.78;41.61
51617;BME280;37697;52.588;13.394;2023-04-27T14:28:14;101548.34;;;11.69;42.02
51617;BME280;37697;52.588;13.394;2023-04-27T14:33:40;101544.17;;;11.89;41.71
51617;BME280;37697;52.588;13.394;2023-04-27T14:39:06;101548.41;;;12.26;41.56
51617;BME280;37697;52.588;13.394;2023-04-27T14:44:31;101546.09;;;12.16;41.40
51617;BME280;37697;52.588;13.394;2023-04-27T14:49:57;101538.98;;;12.29;41.35
51617;BME280;37697;52.588;13.394;2023-04-27T14:55:24;101533.23;;;12.59;41.05
51617;BME280;37697;52.588;13.394;2023-04-27T15:00:50;101533.55;;;12.75;40.76
51617;BME280;37697;52.588;13.394;2023-04-27T15:06:10;101535.11;;;12.82;40.55
51617;BME280;37697;52.588;13.394;2023-04-27T15:11:36;101537.51;;;12.68;40.41
51617;BME280;37697;52.588;13.394;2023-04-27T15:17:02;101541.50;;;12.39;40.03
51617;BME280;37697;52.588;13.394;2023-04-27T15:22:28;101533.05;;;12.43;40.42
51617;BME280;37697;52.588;13.394;2023-04-27T15:27:54;101532.77;;;12.50;40.23
51617;BME280;37697;52.588;13.394;2023-04-27T15:33:20;101531.16;;;12.56;40.10
51617;BME280;37697;52.588;13.394;2023-04-27T15:38:46;101522.62;;;12.55;39.87
51617;BME280;37697;52.588;13.394;2023-04-27T15:44:14;101521.11;;;12.36;39.59
51617;BME280;37697;52.588;13.394;2023-04-27T15:49:40;101521.05;;;12.08;38.62
51617;BME280;37697;52.588;13.394;2023-04-27T15:55:07;101508.92;;;11.59;38.95
51617;BME280;37697;52.588;13.394;2023-04-27T16:00:33;101504.54;;;11.50;39.47
51617;BME280;37697;52.588;13.394;2023-04-27T16:05:59;101497.98;;;11.87;39.67
51617;BME280;37697;52.588;13.394;2023-04-27T16:11:24;101492.22;;;12.18;39.03
51617;BME280;37697;52.588;13.394;2023-04-27T16:16:50;101485.55;;;12.17;38.49
51617;BME280;37697;52.588;13.394;2023-04-27T16:22:09;101489.28;;;11.96;38.83
51617;BME280;37697;52.588;13.394;2023-04-27T16:27:18;101482.11;;;12.00;39.00
51617;BME280;37697;52.588;13.394;2023-04-27T16:32:44;101482.28;;;12.05;39.05
51617;BME280;37697;52.588;13.394;2023-04-27T16:38:09;101475.65;;;12.05;38.89
51617;BME280;37697;52.588;13.394;2023-04-27T16:43:34;101471.94;;;12.07;38.40
51617;BME280;37697;52.588;13.394;2023-04-27T16:49:00;101474.75;;;11.87;38.54
51617;BME280;37697;52.588;13.394;2023-04-27T16:54:20;101477.02;;;11.71;38.85
51617;BME280;37697;52.588;13.394;2023-04-27T16:59:46;101475.49;;;11.47;38.67
51617;BME280;37697;52.588;13.394;2023-04-27T17:04:54;101479.23;;;11.33;39.26
51617;BME280;37697;52.588;13.394;2023-04-27T17:10:20;101481.96;;;11.16;39.20
51617;BME280;37697;52.588;13.394;2023-04-27T17:15:33;101484.38;;;11.05;39.49
51617;BME280;37697;52.588;13.394;2023-04-27T17:20:59;101483.11;;;10.91;39.83
51617;BME280;37697;52.588;13.394;2023-04-27T17:26:18;101479.25;;;10.76;39.74
51617;BME280;37697;52.588;13.394;2023-04-27T17:31:46;101482.11;;;10.61;40.12
51617;BME280;37697;52.588;13.394;2023-04-27T17:37:12;101485.38;;;10.48;40.38
51617;BME280;37697;52.588;13.394;2023-04-27T17:42:38;101488.98;;;10.36;40.89
51617;BME280;37697;52.588;13.394;2023-04-27T17:48:05;101485.08;;;10.29;41.07
51617;BME280;37697;52.588;13.394;2023-04-27T17:53:31;101487.83;;;10.17;41.55
51617;BME280;37697;52.588;13.394;2023-04-27T17:58:57;101487.05;;;9.95;41.94
51617;BME280;37697;52.588;13.394;2023-04-27T18:04:23;101492.96;;;9.83;42.77
51617;BME280;37697;52.588;13.394;2023-04-27T18:09:36;101498.50;;;9.69;43.08
51617;BME280;37697;52.588;13.394;2023-04-27T18:14:56;101501.18;;;9.54;43.52
51617;BME280;37697;52.588;13.394;2023-04-27T18:20:22;101507.58;;;9.35;44.44
51617;BME280;37697;52.588;13.394;2023-04-27T18:25:48;101512.97;;;9.16;44.84
51617;BME280;37697;52.588;13.394;2023-04-27T18:31:11;101516.05;;;8.98;44.99
51617;BME280;37697;52.588;13.394;2023-04-27T18:36:37;101524.44;;;8.81;45.60
51617;BME280;37697;52.588;13.394;2023-04-27T18:41:56;101529.79;;;8.63;46.30
51617;BME280;37697;52.588;13.394;2023-04-27T18:47:22;101538.10;;;8.43;46.63
51617;BME280;37697;52.588;13.394;2023-04-27T18:52:48;101545.70;;;8.24;47.11
51617;BME280;37697;52.588;13.394;2023-04-27T18:58:05;101552.70;;;8.05;47.51
51617;BME280;37697;52.588;13.394;2023-04-27T19:03:31;101553.52;;;7.86;47.81
51617;BME280;37697;52.588;13.394;2023-04-27T19:08:58;101547.92;;;7.67;48.26
51617;BME280;37697;52.588;13.394;2023-04-27T19:14:23;101552.31;;;7.46;48.90
51617;BME280;37697;52.588;13.394;2023-04-27T19:19:40;101551.20;;;7.29;49.32
51617;BME280;37697;52.588;13.394;2023-04-27T19:24:57;101551.88;;;7.13;49.75
51617;BME280;37697;52.588;13.394;2023-04-27T19:30:23;101552.05;;;6.96;50.11
51617;BME280;37697;52.588;13.394;2023-04-27T19:35:49;101548.02;;;6.81;50.66
51617;BME280;37697;52.588;13.394;2023-04-27T19:41:15;101548.74;;;6.67;51.02
51617;BME280;37697;52.588;13.394;2023-04-27T19:46:41;101543.88;;;6.52;51.44
51617;BME280;37697;52.588;13.394;2023-04-27T19:52:07;101553.83;;;6.37;51.76
51617;BME280;37697;52.588;13.394;2023-04-27T19:57:31;101551.23;;;6.22;52.28
51617;BME280;37697;52.588;13.394;2023-04-27T20:02:57;101555.06;;;6.09;52.64
51617;BME280;37697;52.588;13.394;2023-04-27T20:08:24;101550.06;;;5.96;52.88
51617;BME280;37697;52.588;13.394;2023-04-27T20:13:50;101548.24;;;5.84;53.38
51617;BME280;37697;52.588;13.394;2023-04-27T20:19:06;101544.35;;;5.72;53.56
51617;BME280;37697;52.588;13.394;2023-04-27T20:24:22;101545.80;;;5.59;54.00
51617;BME280;37697;52.588;13.394;2023-04-27T20:29:48;101547.85;;;5.48;54.30
51617;BME280;37697;52.588;13.394;2023-04-27T20:35:13;101548.46;;;5.37;54.69
51617;BME280;37697;52.588;13.394;2023-04-27T20:40:39;101543.20;;;5.26;55.20
51617;BME280;37697;52.588;13.394;2023-04-27T20:46:06;101539.58;;;5.15;55.45
51617;BME280;37697;52.588;13.394;2023-04-27T20:51:32;101537.87;;;5.05;55.85
51617;BME280;37697;52.588;13.394;2023-04-27T20:56:58;101536.15;;;4.93;56.04
51617;BME280;37697;52.588;13.394;2023-04-27T21:02:18;101533.40;;;4.86;56.27
51617;BME280;37697;52.588;13.394;2023-04-27T21:07:44;101528.73;;;4.78;56.63
51617;BME280;37697;52.588;13.394;2023-04-27T21:13:10;101527.36;;;4.67;56.81
51617;BME280;37697;52.588;13.394;2023-04-27T21:18:36;101526.33;;;4.57;57.35
51617;BME280;37697;52.588;13.394;2023-04-27T21:24:02;101518.58;;;4.48;57.74
51617;BME280;37697;52.588;13.394;2023-04-27T21:29:28;101516.88;;;4.42;57.47
51617;BME280;37697;52.588;13.394;2023-04-27T21:34:54;101517.52;;;4.34;58.15
51617;BME280;37697;52.588;13.394;2023-04-27T21:40:20;101516.06;;;4.26;58.26
51617;BME280;37697;52.588;13.394;2023-04-27T21:45:46;101519.19;;;4.19;58.76
51617;BME280;37697;52.588;13.394;2023-04-27T21:51:12;101518.70;;;4.11;58.89
51617;BME280;37697;52.588;13.394;2023-04-27T21:56:37;101519.35;;;4.03;59.42
51617;BME280;37697;52.588;13.394;2023-04-27T22:02:03;101522.13;;;3.92;59.64
51617;BME280;37697;52.588;13.394;2023-04-27T22:07:29;101524.77;;;3.84;60.10
51617;BME280;37697;52.588;13.394;2023-04-27T22:12:55;101526.44;;;3.77;60.27
51617;BME280;37697;52.588;13.394;2023-04-27T22:18:23;101527.14;;;3.73;60.46
51617;BME280;37697;52.588;13.394;2023-04-27T22:23:49;101528.50;;;3.65;60.81
51617;BME280;37697;52.588;13.394;2023-04-27T22:29:15;101529.22;;;3.56;61.03
51617;BME280;37697;52.588;13.394;2023-04-27T22:34:41;101524.48;;;3.49;61.08
51617;BME280;37697;52.588;13.394;2023-04-27T22:40:10;101530.91;;;3.45;61.33
51617;BME280;37697;52.588;13.394;2023-04-27T22:45:35;101533.83;;;3.39;61.70
51617;BME280;37697;52.588;13.394;2023-04-27T22:51:01;101537.35;;;3.33;61.92
51617;BME280;37697;52.588;13.394;2023-04-27T22:56:31;101529.15;;;3.28;62.14
51617;BME280;37697;52.588;13.394;2023-04-27T23:01:57;101524.27;;;3.24;62.14
51617;BME280;37697;52.588;13.394;2023-04-27T23:07:23;101518.84;;;3.18;62.37
51617;BME280;37697;52.588;13.394;2023-04-27T23:12:49;101519.82;;;3.13;62.54
51617;BME280;37697;52.588;13.394;2023-04-27T23:18:15;101516.40;;;3.05;62.66
51617;BME280;37697;52.588;13.394;2023-04-27T23:23:41;101508.95;;;3.01;62.91
51617;BME280;37697;52.588;13.394;2023-04-27T23:29:07;101503.28;;;2.96;63.02
51617;BME280;37697;52.588;13.394;2023-04-27T23:34:32;101503.07;;;2.92;63.26
51617;BME280;37697;52.588;13.394;2023-04-27T23:39:58;101503.64;;;2.87;63.36
51617;BME280;37697;52.588;13.394;2023-04-27T23:45:24;101498.70;;;2.78;63.42
51617;BME280;37697;52.588;13.394;2023-04-27T23:50:58;101486.86;;;2.71;63.71
51617;BME280;37697;52.588;13.394;2023-04-27T23:56:24;101487.04;;;2.61;64.04
